Time;durP1;ratioP1;P1;durP2;ratioP2;P2;SDS_P1;SDS_P2;PMS_P1;PMS_P2;Temp;Humidity;BMP_temperature;BMP_pressure;BME280_temperature;BME280_humidity;BME280_pressure;Samples;Min_cycle;Max_cycle;Signal;HPM_P1;HPM_P2
2022/10/16 00:01:18;;;;;;;7.95;1.08;;;12.50;99.90;;;;;;5042473;28;20453;-66
2022/10/16 00:03:46;;;;;;;8.20;1.00;;;12.10;99.90;;;;;;5031656;28;20127;-66
2022/10/16 00:06:12;;;;;;;7.20;0.90;;;12.50;99.90;;;;;;5063156;28;20113;-65
2022/10/16 00:08:39;;;;;;;7.80;0.88;;;12.50;99.90;;;;;;5062837;28;20551;-65
2022/10/16 00:11:30;;;;;;;7.13;1.00;;;12.10;99.90;;;;;;5068957;28;20043;-65
2022/10/16 00:13:58;;;;;;;13.60;1.20;;;12.50;99.90;;;;;;5045669;28;20401;-67
2022/10/16 00:16:24;;;;;;;8.50;0.88;;;12.50;99.90;;;;;;5062052;28;20063;-64
2022/10/16 00:18:50;;;;;;;5.55;0.75;;;12.30;99.90;;;;;;5062471;28;20464;-65
2022/10/16 00:21:21;;;;;;;6.45;0.80;;;12.50;99.90;;;;;;5054945;28;20044;-65
2022/10/16 00:23:50;;;;;;;6.85;0.95;;;12.10;99.90;;;;;;5063611;28;20043;-66
2022/10/16 00:26:17;;;;;;;8.82;0.88;;;12.40;99.90;;;;;;5046409;28;20039;-65
2022/10/16 00:28:44;;;;;;;6.20;0.70;;;11.90;99.90;;;;;;5035330;28;20392;-65
2022/10/16 00:31:11;;;;;;;7.95;1.10;;;12.20;99.90;;;;;;5061925;28;20580;-65
2022/10/16 00:33:39;;;;;;;6.38;0.80;;;12.00;99.90;;;;;;5062524;28;20048;-65
2022/10/16 00:36:06;;;;;;;8.52;0.98;;;11.90;99.90;;;;;;5062561;28;20062;-65
2022/10/16 00:38:33;;;;;;;4.45;0.65;;;12.00;99.90;;;;;;5044939;28;20063;-65
2022/10/16 00:40:59;;;;;;;6.97;1.02;;;11.80;99.90;;;;;;5044939;28;20086;-65
2022/10/16 00:43:35;;;;;;;9.80;0.98;;;12.30;99.90;;;;;;5069814;28;20151;-65
2022/10/16 00:46:03;;;;;;;7.45;1.02;;;12.00;99.90;;;;;;5061776;28;20123;-64
2022/10/16 00:48:29;;;;;;;6.50;0.82;;;11.70;99.90;;;;;;5041563;28;20470;-65
2022/10/16 00:50:56;;;;;;;9.05;0.93;;;12.30;99.90;;;;;;5044968;28;20262;-64
2022/10/16 00:53:23;;;;;;;6.93;1.25;;;11.80;99.90;;;;;;5033491;28;20127;-64
2022/10/16 00:55:48;;;;;;;8.75;0.90;;;11.80;99.90;;;;;;5062468;28;20329;-64
2022/10/16 00:58:14;;;;;;;5.57;0.77;;;12.10;99.90;;;;;;5067983;28;20455;-65
2022/10/16 01:00:40;;;;;;;9.93;1.13;;;11.90;99.90;;;;;;5034119;28;20047;-65
2022/10/16 01:03:49;;;;;;;7.55;0.80;;;12.10;99.90;;;;;;5044856;28;20473;-65
2022/10/16 01:06:23;;;;;;;4.03;0.85;;;12.10;99.90;;;;;;5057984;28;20676;-66
2022/10/16 01:09:03;;;;;;;6.80;0.95;;;12.40;99.90;;;;;;5082620;28;20044;-65
2022/10/16 01:11:41;;;;;;;8.63;0.70;;;12.20;99.90;;;;;;5045075;28;20036;-65
2022/10/16 01:14:19;;;;;;;5.13;0.90;;;11.80;99.90;;;;;;5061608;28;20044;-65
2022/10/16 01:16:55;;;;;;;5.68;1.02;;;11.90;99.90;;;;;;5044260;28;20532;-65
2022/10/16 01:19:55;;;;;;;6.53;0.60;;;12.40;99.90;;;;;;5061190;28;20155;-66
2022/10/16 01:22:25;;;;;;;6.80;0.68;;;12.10;99.90;;;;;;5061379;28;21883;-65
2022/10/16 01:24:53;;;;;;;6.78;0.90;;;12.40;99.90;;;;;;5061353;28;20039;-65
2022/10/16 01:27:32;;;;;;;7.45;0.85;;;12.10;99.90;;;;;;5043887;28;20102;-65
2022/10/16 01:30:16;;;;;;;6.32;0.60;;;12.40;99.90;;;;;;5061728;28;20405;-65
2022/10/16 01:33:06;;;;;;;7.63;0.90;;;11.80;99.90;;;;;;5045470;28;20554;-64
2022/10/16 01:35:38;;;;;;;6.05;0.77;;;12.20;99.90;;;;;;5061099;28;20047;-66
2022/10/16 01:38:40;;;;;;;4.80;0.60;;;12.10;99.90;;;;;;5060868;28;20044;-64
2022/10/16 01:41:15;;;;;;;3.35;0.55;;;11.60;99.90;;;;;;5028118;28;20056;-65
2022/10/16 01:43:45;;;;;;;5.28;0.73;;;11.60;99.90;;;;;;5061372;28;20115;-65
2022/10/16 01:46:15;;;;;;;7.22;0.98;;;11.70;99.90;;;;;;5032719;28;20468;-64
2022/10/16 01:48:41;;;;;;;4.82;0.68;;;12.00;99.90;;;;;;5044980;28;20454;-65
2022/10/16 01:51:11;;;;;;;6.90;1.10;;;11.60;99.90;;;;;;5071438;28;20065;-64
2022/10/16 01:53:38;;;;;;;5.75;0.60;;;12.10;99.90;;;;;;5061587;28;20032;-64
2022/10/16 01:56:08;;;;;;;6.20;1.13;;;11.60;99.90;;;;;;5061355;28;20512;-65
2022/10/16 01:58:42;;;;;;;5.72;0.90;;;11.60;99.90;;;;;;5084668;28;20039;-65
2022/10/16 02:01:10;;;;;;;6.25;0.70;;;11.70;99.90;;;;;;5083908;28;20516;-65
2022/10/16 02:03:38;;;;;;;7.53;1.13;;;12.10;99.90;;;;;;5043023;28;20454;-65
2022/10/16 02:06:04;;;;;;;6.63;0.70;;;11.90;99.90;;;;;;5045056;28;20036;-65
2022/10/16 02:08:31;;;;;;;7.15;1.20;;;11.70;99.90;;;;;;5059631;28;20123;-65
2022/10/16 02:10:58;;;;;;;6.43;0.60;;;11.90;99.90;;;;;;5060378;28;20371;-67
2022/10/16 02:14:06;;;;;;;4.72;0.70;;;11.70;99.90;;;;;;5060505;28;20048;-66
2022/10/16 02:16:41;;;;;;;6.90;0.80;;;11.70;99.90;;;;;;5026357;28;20056;-65
2022/10/16 02:19:08;;;;;;;5.18;0.60;;;11.80;99.90;;;;;;5029163;28;20044;-65
2022/10/16 02:22:01;;;;;;;5.78;0.70;;;11.80;99.90;;;;;;5060109;28;20046;-65
2022/10/16 02:25:15;;;;;;;10.75;0.80;;;12.10;99.90;;;;;;5060583;28;20040;-64
2022/10/16 02:27:46;;;;;;;;;;;12.20;99.90;;;;;;5018830;28;20423;-65
2022/10/16 02:30:20;;;;;;;9.63;0.90;;;12.10;99.90;;;;;;5054448;28;20011;-64
2022/10/16 02:32:48;;;;;;;4.70;0.73;;;12.10;99.90;;;;;;5059861;28;20120;-64
2022/10/16 02:35:18;;;;;;;3.83;0.80;;;12.50;99.90;;;;;;5059757;28;20541;-65
2022/10/16 02:37:45;;;;;;;6.35;0.90;;;12.00;99.90;;;;;;5059850;28;20101;-64
2022/10/16 02:40:11;;;;;;;5.88;0.70;;;12.40;99.90;;;;;;5058268;28;20833;-65
2022/10/16 02:42:39;;;;;;;6.70;1.00;;;12.40;99.90;;;;;;5059330;28;20032;-64
2022/10/16 02:45:07;;;;;;;6.07;0.70;;;12.20;99.90;;;;;;5059541;28;20404;-65
2022/10/16 02:47:32;;;;;;;8.20;0.93;;;12.40;99.90;;;;;;5059054;28;20046;-66
2022/10/16 02:49:58;;;;;;;5.18;0.80;;;12.10;99.90;;;;;;5056285;28;20413;-63
2022/10/16 02:52:25;;;;;;;5.32;0.73;;;12.10;99.90;;;;;;5039566;28;20607;-64
2022/10/16 02:54:51;;;;;;;6.55;0.60;;;12.10;99.90;;;;;;5022170;28;20078;-64
2022/10/16 02:57:17;;;;;;;4.30;0.60;;;12.30;99.90;;;;;;5054944;28;20065;-65
2022/10/16 02:59:43;;;;;;;8.73;0.90;;;12.50;99.90;;;;;;5055114;28;20045;-64
2022/10/16 03:02:09;;;;;;;3.63;0.63;;;12.20;99.90;;;;;;5056142;28;20051;-64
2022/10/16 03:04:35;;;;;;;5.22;0.50;;;12.50;99.90;;;;;;5038661;28;20040;-64
2022/10/16 03:07:00;;;;;;;3.30;0.60;;;12.30;99.90;;;;;;5039978;28;20119;-64
2022/10/16 03:09:26;;;;;;;6.20;0.75;;;12.40;99.90;;;;;;5056321;28;20036;-64
2022/10/16 03:11:52;;;;;;;4.22;0.60;;;12.60;99.90;;;;;;5040449;28;20044;-64
2022/10/16 03:14:17;;;;;;;4.47;0.70;;;12.20;99.90;;;;;;5022903;28;20040;-65
2022/10/16 03:16:43;;;;;;;7.40;1.10;;;12.70;99.90;;;;;;5040377;28;20420;-65
2022/10/16 03:19:09;;;;;;;3.85;0.70;;;12.20;99.90;;;;;;5055696;28;20080;-65
2022/10/16 03:21:34;;;;;;;5.70;0.73;;;12.60;99.90;;;;;;5056653;28;20046;-65
2022/10/16 03:24:00;;;;;;;4.80;0.63;;;12.50;99.90;;;;;;5055768;28;20036;-65
2022/10/16 03:26:26;;;;;;;5.18;0.60;;;12.40;99.90;;;;;;5055017;28;20040;-65
2022/10/16 03:28:52;;;;;;;4.93;0.65;;;12.50;99.90;;;;;;5023495;28;20044;-65
2022/10/16 03:31:17;;;;;;;4.65;0.52;;;12.40;99.90;;;;;;5048034;28;20375;-64
2022/10/16 03:33:43;;;;;;;4.50;0.45;;;12.40;99.90;;;;;;5037922;28;20520;-65
2022/10/16 03:36:09;;;;;;;5.68;0.80;;;12.20;99.90;;;;;;5055540;28;20495;-64
2022/10/16 03:38:34;;;;;;;6.75;0.88;;;12.40;99.90;;;;;;5057062;28;20131;-65
2022/10/16 03:41:00;;;;;;;3.65;0.60;;;12.50;99.90;;;;;;5042242;28;20406;-65
2022/10/16 03:43:26;;;;;;;3.63;0.80;;;12.30;99.90;;;;;;5042669;28;20036;-64
2022/10/16 03:45:51;;;;;;;3.63;0.55;;;12.40;99.90;;;;;;5058979;28;20387;-64
2022/10/16 03:48:18;;;;;;;4.55;0.68;;;11.80;99.90;;;;;;5028091;28;20076;-64
2022/10/16 03:50:44;;;;;;;3.38;0.63;;;11.90;99.90;;;;;;5042333;28;20057;-64
2022/10/16 03:53:10;;;;;;;4.25;0.60;;;12.30;99.90;;;;;;5025562;28;20052;-63
2022/10/16 03:55:36;;;;;;;6.30;0.80;;;11.80;99.90;;;;;;5043375;28;20044;-64
2022/10/16 03:58:02;;;;;;;6.25;0.90;;;12.10;99.90;;;;;;5026649;28;20071;-64
2022/10/16 04:00:27;;;;;;;3.80;0.75;;;11.90;99.90;;;;;;5077025;28;20405;-65
2022/10/16 04:02:53;;;;;;;4.65;0.88;;;12.40;99.90;;;;;;5059125;28;20044;-64
2022/10/16 04:05:19;;;;;;;3.40;0.80;;;12.00;99.90;;;;;;5041496;28;20041;-65
2022/10/16 04:07:44;;;;;;;3.75;0.57;;;12.00;99.90;;;;;;5042823;28;20386;-65
2022/10/16 04:10:10;;;;;;;3.75;0.60;;;11.90;99.90;;;;;;5043152;28;20040;-65
2022/10/16 04:12:36;;;;;;;4.28;0.85;;;12.00;99.90;;;;;;5059547;28;20079;-65
2022/10/16 04:15:02;;;;;;;3.78;0.60;;;12.20;99.90;;;;;;5042029;28;20044;-66
2022/10/16 04:17:27;;;;;;;4.90;0.80;;;11.80;99.90;;;;;;5059407;28;20048;-65
2022/10/16 04:19:53;;;;;;;3.42;0.60;;;12.00;99.90;;;;;;5032409;28;20044;-65
2022/10/16 04:22:19;;;;;;;4.97;0.60;;;12.10;99.90;;;;;;5058188;28;20124;-65
2022/10/16 04:24:44;;;;;;;2.67;0.60;;;11.80;99.90;;;;;;5059873;28;20040;-65
2022/10/16 04:27:10;;;;;;;3.22;0.50;;;11.70;99.90;;;;;;5058135;28;20043;-65
2022/10/16 04:29:36;;;;;;;4.35;0.60;;;11.80;99.90;;;;;;5058574;28;20052;-66
2022/10/16 04:32:01;;;;;;;5.65;0.75;;;12.20;99.90;;;;;;5058983;28;20578;-65
2022/10/16 04:34:27;;;;;;;5.78;0.60;;;12.20;99.90;;;;;;5042727;28;20078;-65
2022/10/16 04:36:53;;;;;;;6.85;0.70;;;12.10;99.90;;;;;;5026309;28;20032;-65
2022/10/16 04:39:18;;;;;;;5.00;0.70;;;12.00;99.90;;;;;;5057218;28;20154;-65
2022/10/16 04:41:44;;;;;;;3.10;0.93;;;12.20;99.90;;;;;;5041497;28;20552;-65
2022/10/16 04:44:10;;;;;;;2.58;0.75;;;11.70;99.90;;;;;;5041869;28;20586;-65
2022/10/16 04:46:35;;;;;;;5.80;1.05;;;11.60;99.90;;;;;;5041427;28;20083;-65
2022/10/16 04:49:01;;;;;;;3.60;0.80;;;11.60;99.90;;;;;;5032141;28;20045;-66
2022/10/16 04:51:27;;;;;;;5.00;0.80;;;12.10;99.90;;;;;;5041192;28;20056;-65
2022/10/16 04:53:54;;;;;;;3.75;0.60;;;12.10;99.90;;;;;;5058896;28;20036;-65
2022/10/16 04:56:21;;;;;;;4.97;0.75;;;12.10;99.90;;;;;;5041698;28;20044;-64
2022/10/16 04:58:47;;;;;;;3.67;0.55;;;12.00;99.90;;;;;;5059023;28;20044;-65
2022/10/16 05:01:13;;;;;;;3.42;0.70;;;12.10;99.90;;;;;;5057841;28;20040;-65
2022/10/16 05:03:38;;;;;;;3.05;0.57;;;12.40;99.90;;;;;;5040726;28;20078;-64
2022/10/16 05:06:06;;;;;;;2.70;0.60;;;11.90;99.90;;;;;;5057374;28;20047;-65
2022/10/16 05:08:32;;;;;;;3.80;0.60;;;12.40;99.90;;;;;;5040694;28;20043;-64
2022/10/16 05:10:58;;;;;;;3.05;0.70;;;12.20;99.90;;;;;;5031064;28;20032;-65
2022/10/16 05:13:23;;;;;;;2.72;0.57;;;11.90;99.90;;;;;;5041233;28;20078;-64
2022/10/16 05:15:49;;;;;;;3.80;0.50;;;12.20;99.90;;;;;;5058565;28;20040;-64
2022/10/16 05:18:16;;;;;;;5.00;0.45;;;12.40;99.90;;;;;;5040199;28;20041;-64
2022/10/16 05:20:42;;;;;;;5.22;1.00;;;12.60;99.90;;;;;;5056968;28;20550;-65
2022/10/16 05:23:10;;;;;;;4.57;0.80;;;12.50;99.90;;;;;;5057389;28;20123;-64
2022/10/16 05:25:36;;;;;;;5.28;0.70;;;12.80;99.90;;;;;;5057550;28;20510;-65
2022/10/16 05:28:02;;;;;;;4.45;0.77;;;12.80;99.90;;;;;;5057888;28;20045;-64
2022/10/16 05:30:27;;;;;;;5.45;0.70;;;12.50;99.90;;;;;;5040158;28;20045;-64
2022/10/16 05:32:53;;;;;;;4.90;0.80;;;12.30;99.90;;;;;;5058630;28;20043;-64
2022/10/16 05:35:19;;;;;;;4.57;0.65;;;12.80;99.90;;;;;;5058203;28;20587;-65
2022/10/16 05:37:46;;;;;;;5.90;0.82;;;12.30;99.90;;;;;;5058696;28;20040;-65
2022/10/16 05:40:12;;;;;;;3.28;0.60;;;12.20;99.90;;;;;;5041407;28;20040;-64
2022/10/16 05:42:38;;;;;;;3.55;0.80;;;12.30;99.90;;;;;;5040369;28;20032;-64
2022/10/16 05:45:06;;;;;;;4.30;0.60;;;12.30;99.90;;;;;;5040991;28;20036;-65
2022/10/16 05:47:31;;;;;;;6.63;0.70;;;12.30;99.90;;;;;;5058079;28;20041;-65
2022/10/16 05:49:57;;;;;;;6.32;0.93;;;12.30;99.90;;;;;;5056615;28;20059;-65
2022/10/16 05:52:23;;;;;;;3.53;0.60;;;12.30;99.90;;;;;;5056639;28;20049;-65
2022/10/16 05:54:49;;;;;;;4.88;0.90;;;12.30;99.90;;;;;;5057027;28;20036;-64
2022/10/16 05:57:15;;;;;;;2.88;0.70;;;12.80;99.90;;;;;;5039415;28;20056;-65
2022/10/16 05:59:40;;;;;;;3.83;0.95;;;12.30;99.90;;;;;;5040649;28;20047;-65
2022/10/16 06:02:08;;;;;;;5.25;0.95;;;12.80;99.90;;;;;;5039387;28;20046;-65
2022/10/16 06:04:34;;;;;;;4.20;0.90;;;12.20;99.90;;;;;;5040419;28;20422;-64
2022/10/16 06:07:02;;;;;;;3.75;0.88;;;12.40;99.90;;;;;;5024691;28;20029;-64
2022/10/16 06:09:28;;;;;;;5.50;0.93;;;12.70;99.90;;;;;;5057751;28;20123;-65
2022/10/16 06:11:54;;;;;;;4.80;1.10;;;12.60;99.90;;;;;;5057124;28;20444;-64
2022/10/16 06:14:19;;;;;;;3.72;1.00;;;12.60;99.90;;;;;;5039479;28;20044;-64
2022/10/16 06:16:45;;;;;;;7.88;0.90;;;12.90;99.90;;;;;;5055803;28;20044;-65
2022/10/16 06:19:11;;;;;;;3.88;1.00;;;12.50;99.90;;;;;;5039484;28;20123;-66
2022/10/16 06:21:36;;;;;;;4.28;1.77;;;12.40;99.90;;;;;;5024230;28;20048;-65
2022/10/16 06:24:02;;;;;;;4.75;1.67;;;13.00;99.90;;;;;;5055711;28;20119;-64
2022/10/16 06:26:30;;;;;;;3.42;1.20;;;13.00;99.90;;;;;;5040188;28;20115;-65
2022/10/16 06:28:57;;;;;;;6.57;1.52;;;12.60;99.90;;;;;;5041280;28;20040;-65
2022/10/16 06:31:27;;;;;;;5.82;1.52;;;12.40;99.90;;;;;;5056861;28;20048;-65
2022/10/16 06:33:53;;;;;;;4.22;1.45;;;12.40;99.90;;;;;;5056035;28;20052;-65
2022/10/16 06:36:19;;;;;;;4.95;1.05;;;12.50;99.90;;;;;;5038480;28;20048;-65
2022/10/16 06:38:45;;;;;;;5.05;1.10;;;12.40;99.90;;;;;;5024741;28;20102;-65
2022/10/16 06:41:13;;;;;;;5.22;1.40;;;12.90;99.90;;;;;;5034439;28;20052;-65
2022/10/16 06:43:39;;;;;;;6.82;1.75;;;12.80;99.90;;;;;;5040669;28;20414;-65
2022/10/16 06:46:10;;;;;;;4.22;1.02;;;12.60;99.90;;;;;;5055107;28;20032;-66
2022/10/16 06:48:36;;;;;;;4.30;1.10;;;12.50;99.90;;;;;;5056562;28;20044;-65
2022/10/16 06:51:14;;;;;;;4.50;1.20;;;12.90;99.90;;;;;;5054403;28;20103;-66
2022/10/16 06:53:42;;;;;;;6.05;1.50;;;12.90;99.90;;;;;;5055535;28;20135;-65
2022/10/16 06:56:13;;;;;;;4.57;1.10;;;13.10;99.90;;;;;;5055283;28;20040;-65
2022/10/16 06:58:40;;;;;;;5.78;1.70;;;13.30;99.90;;;;;;5055587;28;20083;-65
2022/10/16 07:01:06;;;;;;;4.90;1.67;;;13.30;99.90;;;;;;5039345;28;20099;-66
2022/10/16 07:03:32;;;;;;;4.22;1.50;;;13.30;99.90;;;;;;5040162;28;20041;-65
2022/10/16 07:06:03;;;;;;;8.65;1.50;;;12.90;99.90;;;;;;5029808;28;20048;-66
2022/10/16 07:08:32;;;;;;;4.55;1.58;;;12.80;99.90;;;;;;5056273;28;20052;-65
2022/10/16 07:11:06;;;;;;;4.15;1.08;;;12.90;99.90;;;;;;5043911;28;20049;-66
2022/10/16 07:13:40;;;;;;;5.45;1.52;;;12.80;99.90;;;;;;5027401;28;20040;-65
2022/10/16 07:16:15;;;;;;;6.03;1.50;;;13.40;99.90;;;;;;5031658;28;20129;-66
2022/10/16 07:18:42;;;;;;;5.18;1.23;;;13.50;99.90;;;;;;5053417;28;20045;-66
2022/10/16 07:21:14;;;;;;;5.82;1.30;;;13.40;99.90;;;;;;5026456;28;20068;-66
2022/10/16 07:23:41;;;;;;;7.07;1.27;;;12.90;99.90;;;;;;5056056;28;20037;-65
2022/10/16 07:26:09;;;;;;;6.05;1.20;;;13.10;99.90;;;;;;5054638;28;20036;-65
2022/10/16 07:28:35;;;;;;;4.85;1.08;;;13.10;99.90;;;;;;5039731;28;20075;-65
2022/10/16 07:31:03;;;;;;;5.53;1.20;;;13.60;99.90;;;;;;5022645;28;20127;-66
2022/10/16 07:33:30;;;;;;;5.43;1.00;;;13.50;99.90;;;;;;5057170;28;20041;-65
2022/10/16 07:35:55;;;;;;;4.43;1.02;;;13.00;99.90;;;;;;5057410;28;20131;-65
2022/10/16 07:38:21;;;;;;;7.22;1.20;;;13.10;99.90;;;;;;5025395;28;20155;-65
2022/10/16 07:40:47;;;;;;;3.00;1.10;;;13.70;99.90;;;;;;5056264;28;20040;-65
2022/10/16 07:43:14;;;;;;;9.50;1.17;;;13.60;99.90;;;;;;5038759;28;20102;-65
2022/10/16 07:45:48;;;;;;;5.43;1.02;;;13.70;99.90;;;;;;5038780;28;20139;-64
2022/10/16 07:48:14;;;;;;;4.45;0.70;;;13.90;99.90;;;;;;5037738;28;20252;-65
2022/10/16 07:50:40;;;;;;;3.95;0.65;;;13.70;99.90;;;;;;5053791;28;20063;-64
2022/10/16 07:53:06;;;;;;;6.03;0.85;;;13.70;99.90;;;;;;5053175;28;20055;-65
2022/10/16 07:55:32;;;;;;;6.50;0.90;;;13.70;99.90;;;;;;5030495;28;20036;-66
2022/10/16 07:57:58;;;;;;;6.15;0.90;;;13.60;99.90;;;;;;5054763;28;20319;-64
2022/10/16 08:00:23;;;;;;;5.07;0.73;;;14.00;99.90;;;;;;5037959;28;20040;-64
2022/10/16 08:02:49;;;;;;;3.67;0.70;;;14.00;99.90;;;;;;5053347;28;20128;-65
2022/10/16 08:05:14;;;;;;;3.20;0.70;;;14.10;99.90;;;;;;5056184;28;20429;-66
2022/10/16 08:07:40;;;;;;;4.93;0.88;;;13.80;99.90;;;;;;5054462;28;20036;-65
2022/10/16 08:10:06;;;;;;;5.90;2.03;;;14.10;99.90;;;;;;5022548;28;20071;-65
2022/10/16 08:12:32;;;;;;;5.32;0.90;;;13.90;99.90;;;;;;5052063;28;20063;-66
2022/10/16 08:14:57;;;;;;;5.22;0.90;;;14.10;99.90;;;;;;5054729;28;20048;-66
2022/10/16 08:17:23;;;;;;;2.70;0.70;;;14.50;99.90;;;;;;5022279;28;20090;-66
2022/10/16 08:19:49;;;;;;;5.25;0.95;;;14.50;99.90;;;;;;5055741;28;20232;-65
2022/10/16 08:22:14;;;;;;;5.95;0.90;;;14.60;99.90;;;;;;5024557;28;20506;-66
2022/10/16 08:24:40;;;;;;;5.22;0.90;;;14.20;99.90;;;;;;5057148;28;20390;-64
2022/10/16 08:27:07;;;;;;;4.88;0.90;;;14.20;99.90;;;;;;5040746;28;20047;-66
2022/10/16 08:29:32;;;;;;;5.13;0.77;;;14.30;99.90;;;;;;5076805;28;20617;-66
2022/10/16 08:31:58;;;;;;;3.95;0.70;;;14.00;99.90;;;;;;5060284;28;20076;-66
2022/10/16 08:34:24;;;;;;;2.95;0.52;;;14.20;99.90;;;;;;5041277;28;20044;-66
2022/10/16 08:36:54;;;;;;;4.70;0.90;;;14.70;99.90;;;;;;5026559;28;20148;-66
2022/10/16 08:39:19;;;;;;;3.22;0.75;;;15.50;99.90;;;;;;5058686;28;20063;-67
2022/10/16 08:42:04;;;;;;;5.63;0.60;;;16.50;99.90;;;;;;5025586;28;20044;-65
2022/10/16 08:44:48;;;;;;;3.08;0.50;;;16.20;99.90;;;;;;5056552;28;20468;-65
2022/10/16 08:47:31;;;;;;;3.70;0.40;;;16.40;99.90;;;;;;5073671;28;20040;-66
2022/10/16 08:50:02;;;;;;;4.00;0.50;;;16.40;99.90;;;;;;5059064;28;20089;-65
2022/10/16 08:52:35;;;;;;;6.07;0.70;;;16.80;99.90;;;;;;5041734;28;20056;-66
2022/10/16 08:55:01;;;;;;;5.03;0.70;;;16.70;99.90;;;;;;5044609;28;20391;-65
2022/10/16 08:57:28;;;;;;;3.60;0.45;;;16.40;99.90;;;;;;5062182;28;20127;-65
2022/10/16 09:00:00;;;;;;;4.90;0.80;;;16.50;99.90;;;;;;5047710;28;20052;-65
2022/10/16 09:02:37;;;;;;;4.07;0.60;;;17.00;99.90;;;;;;5044254;28;20102;-66
2022/10/16 09:05:19;;;;;;;2.53;0.50;;;17.40;99.90;;;;;;5059059;28;20364;-65
2022/10/16 09:08:06;;;;;;;4.22;0.60;;;17.80;99.90;;;;;;5044114;28;20043;-65
2022/10/16 09:11:10;;;;;;;3.55;0.40;;;17.30;99.90;;;;;;5059962;28;20035;-66
2022/10/16 09:13:50;;;;;;;3.97;0.40;;;16.70;99.90;;;;;;5057915;28;20898;-64
2022/10/16 09:16:27;;;;;;;6.10;0.43;;;16.50;99.90;;;;;;5044249;28;20043;-66
2022/10/16 09:19:34;;;;;;;3.83;0.55;;;16.30;99.90;;;;;;5061261;28;20474;-66
2022/10/16 09:22:09;;;;;;;5.78;0.77;;;16.10;99.90;;;;;;5041921;28;20081;-65
2022/10/16 09:24:36;;;;;;;5.65;0.52;;;16.10;99.90;;;;;;5059522;28;20256;-65
2022/10/16 09:27:01;;;;;;;6.88;0.70;;;16.00;99.90;;;;;;5034044;28;20046;-66
2022/10/16 09:29:27;;;;;;;5.85;0.85;;;15.80;99.90;;;;;;5058253;28;20047;-64
2022/10/16 09:31:55;;;;;;;8.68;1.00;;;15.50;99.90;;;;;;5017300;28;20055;-64
2022/10/16 09:34:37;;;;;;;6.90;0.38;;;15.80;99.90;;;;;;5058524;28;20036;-65
2022/10/16 09:37:09;;;;;;;3.60;0.30;;;16.10;99.90;;;;;;5057910;28;20047;-64
2022/10/16 09:39:52;;;;;;;7.60;0.47;;;16.50;99.90;;;;;;5044132;28;20430;-65
2022/10/16 09:42:22;;;;;;;5.53;0.45;;;16.70;99.90;;;;;;5042796;28;20050;-64
2022/10/16 09:44:50;;;;;;;5.22;0.40;;;16.80;99.90;;;;;;5058719;28;20071;-66
2022/10/16 09:47:17;;;;;;;4.97;0.50;;;17.00;99.90;;;;;;5058587;28;20485;-65
2022/10/16 09:50:15;;;;;;;6.15;0.80;;;17.30;99.90;;;;;;5059437;28;20043;-65
2022/10/16 09:52:41;;;;;;;8.25;0.80;;;17.70;99.90;;;;;;5058777;28;20445;-65
2022/10/16 09:55:15;;;;;;;5.97;0.40;;;18.40;99.90;;;;;;5026556;28;20047;-66
2022/10/16 09:57:52;;;;;;;7.00;0.50;;;18.50;99.90;;;;;;5042736;28;20058;-66
2022/10/16 10:00:20;;;;;;;5.97;0.68;;;17.80;99.90;;;;;;5059232;28;20044;-65
2022/10/16 10:02:46;;;;;;;3.63;0.40;;;17.40;99.90;;;;;;5058546;28;20497;-65
2022/10/16 10:05:29;;;;;;;5.35;0.70;;;17.30;99.90;;;;;;5083194;28;20323;-67
2022/10/16 10:08:00;;;;;;;11.95;0.90;;;17.40;99.90;;;;;;5060615;28;20119;-65
2022/10/16 10:10:28;;;;;;;9.00;0.65;;;17.40;99.90;;;;;;5040827;28;21122;-66
2022/10/16 10:12:55;;;;;;;7.45;0.80;;;17.60;99.90;;;;;;5056405;28;20559;-65
2022/10/16 10:15:23;;;;;;;7.88;0.93;;;17.60;99.90;;;;;;5086955;28;20693;-65
2022/10/16 10:17:51;;;;;;;7.50;0.70;;;17.60;99.90;;;;;;5058357;28;20050;-65
2022/10/16 10:20:25;;;;;;;8.55;0.98;;;18.30;99.90;;;;;;5030208;28;20044;-65
2022/10/16 10:22:51;;;;;;;10.02;1.25;;;18.20;99.90;;;;;;5059282;28;20032;-65
2022/10/16 10:25:33;;;;;;;8.50;1.05;;;17.80;99.90;;;;;;5057210;28;20359;-65
2022/10/16 10:28:29;;;;;;;7.40;0.82;;;17.90;99.90;;;;;;5057793;28;20051;-65
2022/10/16 10:31:12;;;;;;;10.27;1.10;;;18.10;99.90;;;;;;5058738;28;20137;-65
2022/10/16 10:33:57;;;;;;;8.57;0.98;;;18.50;99.90;;;;;;5046259;28;20071;-64
2022/10/16 10:36:36;;;;;;;9.60;0.88;;;18.90;99.90;;;;;;5043736;28;20480;-65
2022/10/16 10:39:12;;;;;;;10.77;1.30;;;18.90;99.90;;;;;;5040918;28;20156;-64
2022/10/16 10:41:49;;;;;;;6.20;0.90;;;19.20;99.90;;;;;;5050124;28;20174;-64
2022/10/16 10:44:53;;;;;;;8.23;1.35;;;19.50;99.90;;;;;;5059019;28;20151;-64
2022/10/16 10:47:21;;;;;;;9.00;1.05;;;19.50;99.90;;;;;;5055915;28;20246;-66
2022/10/16 10:50:25;;;;;;;7.15;0.68;;;19.10;99.90;;;;;;5042261;28;20337;-66
2022/10/16 10:52:53;;;;;;;10.65;1.27;;;18.90;99.90;;;;;;5071591;28;20063;-65
2022/10/16 10:55:47;;;;;;;9.98;1.05;;;18.70;99.90;;;;;;5035002;28;20049;-65
2022/10/16 10:58:18;;;;;;;11.18;1.60;;;18.40;99.90;;;;;;5054753;28;20501;-66
2022/10/16 11:00:59;;;;;;;9.15;1.30;;;18.70;99.90;;;;;;5027592;28;20044;-64
2022/10/16 11:03:52;;;;;;;10.80;1.27;;;18.80;99.90;;;;;;5037878;28;20036;-65
2022/10/16 11:06:24;;;;;;;10.38;1.30;;;18.90;99.90;;;;;;5052014;28;20485;-66
2022/10/16 11:08:55;;;;;;;13.13;1.90;;;18.90;99.90;;;;;;5036412;28;20277;-66
2022/10/16 11:11:46;;;;;;;8.82;1.20;;;18.90;99.90;;;;;;5053516;28;20091;-66
2022/10/16 11:14:17;;;;;;;10.43;1.25;;;19.20;99.90;;;;;;5053000;28;20101;-67
2022/10/16 11:17:00;;;;;;;7.82;0.93;;;19.40;99.90;;;;;;5027210;28;20168;-66
2022/10/16 11:19:51;;;;;;;8.13;0.93;;;19.90;99.90;;;;;;5056142;28;20471;-66
2022/10/16 11:22:27;;;;;;;10.93;1.33;;;20.20;99.90;;;;;;5054065;28;21269;-66
2022/10/16 11:25:23;;;;;;;7.13;1.13;;;20.30;99.90;;;;;;5053092;28;20044;-64
2022/10/16 11:27:58;;;;;;;10.57;1.23;;;20.30;99.90;;;;;;5053867;28;20040;-64
2022/10/16 11:30:30;;;;;;;8.57;0.82;;;20.00;99.90;;;;;;5037621;28;20048;-65
2022/10/16 11:33:18;;;;;;;4.18;0.60;;;20.30;99.90;;;;;;5037817;28;20050;-66
2022/10/16 11:35:55;;;;;;;7.18;0.80;;;20.20;99.90;;;;;;5054607;28;20052;-65
2022/10/16 11:38:29;;;;;;;6.07;0.70;;;20.10;99.90;;;;;;5024587;28;20041;-65
2022/10/16 11:41:01;;;;;;;6.80;0.70;;;19.90;99.90;;;;;;5039760;28;20048;-65
2022/10/16 11:43:51;;;;;;;8.40;1.05;;;20.10;99.90;;;;;;5056825;28;20051;-65
2022/10/16 11:46:24;;;;;;;5.68;0.80;;;20.10;99.90;;;;;;5033594;28;20254;-66
2022/10/16 11:48:57;;;;;;;10.48;1.10;;;20.50;99.90;;;;;;5041924;28;20097;-64
2022/10/16 11:51:45;;;;;;;8.50;1.08;;;20.30;99.90;;;;;;5059171;28;20052;-64
2022/10/16 11:54:28;;;;;;;6.50;0.80;;;20.50;99.90;;;;;;5058855;28;20465;-65
2022/10/16 11:57:01;;;;;;;5.40;0.73;;;20.50;99.90;;;;;;5030809;28;20051;-64
2022/10/16 11:59:47;;;;;;;;;;;20.60;99.90;;;;;;5059353;28;20032;-66
2022/10/16 12:02:21;;;;;;;6.30;0.60;;;20.40;99.90;;;;;;5063418;28;19927;-64
2022/10/16 12:04:58;;;;;;;10.38;1.30;;;20.90;99.90;;;;;;5058467;28;20433;-65
2022/10/16 12:07:38;;;;;;;10.90;1.05;;;21.10;99.90;;;;;;5061271;28;20044;-66
2022/10/16 12:10:20;;;;;;;8.32;1.23;;;21.00;99.90;;;;;;5044871;28;20059;-66
2022/10/16 12:12:46;;;;;;;9.63;0.90;;;20.50;99.90;;;;;;5047206;28;20393;-66
2022/10/16 12:15:38;;;;;;;10.57;1.48;;;20.30;99.90;;;;;;5059045;28;20040;-66
2022/10/16 12:18:04;;;;;;;12.48;1.52;;;20.00;99.90;;;;;;5041040;28;20044;-64
2022/10/16 12:20:32;;;;;;;9.40;1.45;;;19.00;99.90;;;;;;5043201;28;20413;-65
2022/10/16 12:23:04;;;;;;;11.32;1.70;;;18.70;99.90;;;;;;5059386;28;20036;-65
2022/10/16 12:25:36;;;;;;;11.10;1.03;;;19.00;99.90;;;;;;5043498;28;20041;-65
2022/10/16 12:28:17;;;;;;;11.40;1.63;;;18.50;99.90;;;;;;5056453;28;20049;-66
2022/10/16 12:30:59;;;;;;;11.47;1.23;;;17.90;99.90;;;;;;5038499;28;20054;-65
2022/10/16 12:33:27;;;;;;;11.60;1.30;;;17.50;99.90;;;;;;5034474;28;20044;-66
2022/10/16 12:35:53;;;;;;;7.55;0.93;;;18.20;99.90;;;;;;5040085;28;20036;-65
2022/10/16 12:38:25;;;;;;;8.25;0.88;;;18.90;99.90;;;;;;5057160;28;20052;-65
2022/10/16 12:41:03;;;;;;;10.80;1.10;;;19.50;99.90;;;;;;5041161;28;20040;-66
2022/10/16 12:43:35;;;;;;;12.15;1.00;;;19.70;99.90;;;;;;5036898;28;20502;-65
2022/10/16 12:46:10;;;;;;;10.02;1.23;;;20.00;99.90;;;;;;5055529;28;20055;-65
2022/10/16 12:48:38;;;;;;;9.25;0.90;;;20.10;99.90;;;;;;5038401;28;20036;-63
2022/10/16 12:51:35;;;;;;;8.35;0.80;;;20.00;99.90;;;;;;5029398;28;20048;-64
2022/10/16 12:54:13;;;;;;;8.48;1.10;;;20.00;99.90;;;;;;5023521;28;20131;-64
2022/10/16 12:56:59;;;;;;;6.43;0.65;;;20.00;99.90;;;;;;5036434;28;20044;-64
2022/10/16 12:59:30;;;;;;;7.80;0.70;;;19.70;99.90;;;;;;5058632;28;20119;-64
2022/10/16 13:02:18;;;;;;;9.65;1.20;;;19.60;99.90;;;;;;5058737;28;21429;-64
2022/10/16 13:05:02;;;;;;;7.03;1.23;;;19.60;99.90;;;;;;5058240;28;20067;-65
2022/10/16 13:07:55;;;;;;;9.55;1.00;;;19.00;99.90;;;;;;5059663;28;20221;-66